Fridley, Minnesota
Current Conditions -  °F | °C
As of 6:14 AM on Saturday 20 Dec 2014 (Local Time) from KANE Reporting Station
Overcast Overcast  
Wind Chill: 24°   Ceiling: 1200
Heat Index: 30°   Visibility: 7mi
Dew Point: 28°   Wind: 6mph
Humidity: 93%   Direction: 160°SSE
Pressure: 30.14"   Gusts: NA
Location:  45.09°N, 93.26°W
Report Text: KANE 201214Z AUTO 16005KT 7SM OVC012 M01/M02 A3014 RMK AO2
Loading
Personal Weather Stations






























Interactive Weather Map New forecast layout! Learn more

10-Day Weather Forecast

Advertisements
Track Severe Weather on mobile